createdAt,value
2017-12-22T00:01:42.060Z,28.37
2017-12-22T00:04:12.708Z,26.50
2017-12-22T00:06:42.527Z,26.17
2017-12-22T00:09:09.953Z,27.53
2017-12-22T00:11:37.376Z,25.80
2017-12-22T00:14:04.824Z,28.07
2017-12-22T00:16:32.504Z,29.00
2017-12-22T00:18:59.928Z,28.60
2017-12-22T00:21:27.359Z,28.10
2017-12-22T00:23:55.559Z,27.47
2017-12-22T00:26:22.980Z,29.10
2017-12-22T00:28:52.252Z,27.37
2017-12-22T00:31:19.656Z,28.73
2017-12-22T00:33:47.099Z,27.93
2017-12-22T00:36:15.676Z,27.07
2017-12-22T00:38:43.088Z,29.47
2017-12-22T00:41:10.521Z,30.50
2017-12-22T00:43:38.026Z,29.93
2017-12-22T00:46:05.404Z,30.60
2017-12-22T00:48:33.596Z,28.63
2017-12-22T00:51:01.013Z,30.30
2017-12-22T00:53:28.738Z,30.23
2017-12-22T00:55:56.140Z,29.87
2017-12-22T00:58:23.561Z,32.13
2017-12-22T01:00:51.264Z,29.50
2017-12-22T01:03:19.131Z,29.77
2017-12-22T01:05:47.342Z,29.00
2017-12-22T01:08:14.768Z,30.80
2017-12-22T01:10:43.531Z,30.13
2017-12-22T01:13:17.796Z,28.23
2017-12-22T01:15:50.901Z,28.17
2017-12-22T01:18:23.954Z,28.43
2017-12-22T01:20:52.149Z,28.53
2017-12-22T01:23:19.573Z,28.13
2017-12-22T01:25:47.005Z,29.87
2017-12-22T01:28:14.432Z,28.93
2017-12-22T01:30:42.276Z,29.63
2017-12-22T01:33:09.701Z,28.77
2017-12-22T01:35:37.132Z,29.97
2017-12-22T01:38:04.557Z,28.43
2017-12-22T01:40:31.997Z,28.53
2017-12-22T01:43:00.200Z,28.10
2017-12-22T01:45:27.634Z,27.97
2017-12-22T01:47:55.840Z,27.93
2017-12-22T01:50:23.676Z,26.90
2017-12-22T01:52:52.457Z,29.53
2017-12-22T01:55:21.211Z,28.87
2017-12-22T01:57:48.637Z,28.83
2017-12-22T02:00:16.057Z,28.57
2017-12-22T02:02:46.816Z,28.70
2017-12-22T02:05:14.293Z,27.47
2017-12-22T02:07:41.664Z,31.20
2017-12-22T02:10:09.350Z,27.17
2017-12-22T02:12:36.761Z,29.03
2017-12-22T02:15:04.192Z,31.27
2017-12-22T02:17:31.629Z,30.03
2017-12-22T02:19:59.868Z,31.23
2017-12-22T02:22:27.998Z,30.53
2017-12-22T02:24:55.985Z,30.87
2017-12-22T02:27:24.261Z,30.70
2017-12-22T02:29:51.685Z,30.83
2017-12-22T02:32:19.894Z,31.57
2017-12-22T02:34:47.324Z,31.50
2017-12-22T02:37:15.530Z,31.87
2017-12-22T02:39:42.964Z,33.83
2017-12-22T02:42:10.389Z,30.70
2017-12-22T02:44:38.213Z,31.03
2017-12-22T02:47:05.660Z,30.33
2017-12-22T02:49:33.206Z,31.83
2017-12-22T02:52:00.634Z,32.27
2017-12-22T02:54:28.821Z,31.07
2017-12-22T02:56:57.024Z,30.00
2017-12-22T03:02:28.625Z,31.30
2017-12-22T03:04:56.364Z,33.33
2017-12-22T03:07:23.796Z,31.13
2017-12-22T03:09:51.220Z,32.07
2017-12-22T03:12:18.652Z,30.33
2017-12-22T03:14:52.597Z,29.13
2017-12-22T03:17:20.805Z,28.03
2017-12-22T03:19:50.114Z,31.23
2017-12-22T03:22:17.529Z,31.07
2017-12-22T03:24:45.784Z,29.80
2017-12-22T03:27:13.214Z,31.47
2017-12-22T03:29:40.644Z,30.03
2017-12-22T03:32:08.072Z,30.07
2017-12-22T03:34:35.506Z,29.30
2017-12-22T03:37:03.041Z,27.80
2017-12-22T03:39:30.473Z,27.97
2017-12-22T03:41:57.904Z,29.70
2017-12-22T03:44:26.107Z,26.93
2017-12-22T03:46:53.556Z,28.00
2017-12-22T03:49:20.992Z,27.77
2017-12-22T03:51:49.190Z,28.23
2017-12-22T03:54:17.384Z,26.10
2017-12-22T03:56:44.812Z,27.67
2017-12-22T03:59:13.021Z,27.10
2017-12-22T04:01:41.235Z,26.67
2017-12-22T04:04:09.444Z,26.13
2017-12-22T04:06:38.165Z,27.13
2017-12-22T04:09:05.601Z,28.53
2017-12-22T04:11:33.020Z,25.93
2017-12-22T04:14:00.459Z,28.23
2017-12-22T04:16:28.877Z,26.90
2017-12-22T04:18:56.337Z,29.27
2017-12-22T04:21:24.516Z,29.73
2017-12-22T04:23:51.975Z,27.77
2017-12-22T04:26:19.417Z,27.70
2017-12-22T04:28:48.459Z,26.93
2017-12-22T04:31:15.902Z,28.63
2017-12-22T04:33:43.341Z,26.27
2017-12-22T04:36:11.223Z,25.43
2017-12-22T04:38:38.644Z,24.87
2017-12-22T04:41:06.859Z,25.10
2017-12-22T04:43:34.296Z,24.97
2017-12-22T04:46:01.728Z,23.50
2017-12-22T04:48:31.705Z,24.93
2017-12-22T04:51:00.867Z,24.23
2017-12-22T04:53:29.060Z,23.77
2017-12-22T04:55:56.748Z,23.70
2017-12-22T04:58:24.152Z,21.80
2017-12-22T05:00:51.584Z,22.67
2017-12-22T05:03:19.013Z,20.87
2017-12-22T05:05:46.456Z,20.37
2017-12-22T05:08:13.888Z,20.77
2017-12-22T05:10:41.329Z,19.83
2017-12-22T05:13:09.521Z,19.13
2017-12-22T05:15:36.957Z,19.07
2017-12-22T05:18:05.144Z,18.87
2017-12-22T05:20:32.590Z,19.33
2017-12-22T05:23:01.529Z,18.43
2017-12-22T05:25:28.953Z,19.33
2017-12-22T05:27:56.390Z,17.97
2017-12-22T05:30:24.588Z,19.63
2017-12-22T05:32:52.013Z,19.00
2017-12-22T05:35:20.210Z,18.70
2017-12-22T05:37:50.134Z,16.63
2017-12-22T05:40:17.552Z,19.13
2017-12-22T05:42:44.989Z,17.47
2017-12-22T05:45:12.422Z,17.23
2017-12-22T05:47:41.102Z,18.60
2017-12-22T05:50:08.516Z,18.20
2017-12-22T05:52:36.716Z,18.47
2017-12-22T05:55:04.132Z,17.30
2017-12-22T05:57:31.852Z,17.00
2017-12-22T05:59:59.260Z,16.40
2017-12-22T06:02:26.694Z,16.67
2017-12-22T06:04:54.156Z,15.40
2017-12-22T06:07:21.589Z,16.90
2017-12-22T06:09:49.020Z,15.00
2017-12-22T06:12:16.463Z,14.73
2017-12-22T06:14:45.114Z,15.70
2017-12-22T06:17:12.545Z,15.13
2017-12-22T06:19:40.600Z,16.70
2017-12-22T06:22:08.024Z,16.17
2017-12-22T06:24:36.221Z,16.60
2017-12-22T06:27:03.652Z,15.47
2017-12-22T06:29:31.941Z,15.80
2017-12-22T06:31:59.369Z,16.23
2017-12-22T06:34:27.769Z,17.13
2017-12-22T06:36:56.493Z,17.63
2017-12-22T06:39:24.519Z,16.10
2017-12-22T06:41:51.977Z,17.00
2017-12-22T06:44:33.917Z,14.67
2017-12-22T06:47:01.333Z,14.93
2017-12-22T06:49:29.550Z,13.57
2017-12-22T06:51:57.108Z,13.43
2017-12-22T06:54:24.848Z,13.03
2017-12-22T06:56:52.276Z,13.77
2017-12-22T06:59:20.229Z,14.33
2017-12-22T07:01:49.292Z,12.90
2017-12-22T07:04:18.747Z,14.87
2017-12-22T07:06:46.181Z,13.53
2017-12-22T07:09:14.443Z,14.30
2017-12-22T07:11:54.100Z,13.43
2017-12-22T07:14:21.538Z,13.63
2017-12-22T07:16:49.245Z,14.30
2017-12-22T07:19:18.369Z,14.40
2017-12-22T07:21:45.950Z,14.67
2017-12-22T07:24:14.947Z,15.60
2017-12-22T07:26:42.383Z,15.23
2017-12-22T07:29:09.835Z,15.63
2017-12-22T07:31:37.385Z,15.73
2017-12-22T07:34:04.796Z,15.10
2017-12-22T07:36:32.335Z,16.23
2017-12-22T07:39:00.307Z,15.30
2017-12-22T07:41:28.524Z,15.67
2017-12-22T07:43:55.961Z,14.77
2017-12-22T07:46:24.023Z,14.60
2017-12-22T07:48:52.261Z,15.23
2017-12-22T07:51:19.689Z,13.90
2017-12-22T07:53:47.888Z,14.40
2017-12-22T07:56:15.325Z,14.30
2017-12-22T07:58:43.538Z,14.30
2017-12-22T08:01:13.401Z,13.60
2017-12-22T08:03:41.380Z,14.60
2017-12-22T08:06:08.821Z,14.03
2017-12-22T08:08:36.677Z,14.47
2017-12-22T08:11:04.121Z,14.17
2017-12-22T08:13:31.550Z,12.53
2017-12-22T08:15:58.990Z,13.03
2017-12-22T08:18:27.738Z,13.80
2017-12-22T08:20:55.244Z,13.63
2017-12-22T08:23:22.677Z,14.33
2017-12-22T08:25:50.156Z,14.87
2017-12-22T08:28:17.600Z,13.47
2017-12-22T08:30:45.836Z,14.67
2017-12-22T08:33:13.264Z,13.37
2017-12-22T08:35:40.718Z,14.50
2017-12-22T08:38:08.205Z,14.07
2017-12-22T08:40:36.165Z,14.63
2017-12-22T08:43:03.612Z,14.30
2017-12-22T08:45:31.065Z,15.17
2017-12-22T08:47:58.512Z,14.20
2017-12-22T08:50:25.984Z,15.40
2017-12-22T08:52:53.435Z,15.57
2017-12-22T08:55:22.881Z,15.50
2017-12-22T08:57:50.326Z,16.00
2017-12-22T09:00:17.784Z,16.97
2017-12-22T09:02:45.303Z,16.53
2017-12-22T09:05:12.718Z,16.53
2017-12-22T09:07:40.155Z,18.27
2017-12-22T09:10:07.577Z,18.03
2017-12-22T09:12:35.006Z,18.50
2017-12-22T09:21:04.376Z,18.37
2017-12-22T09:23:31.814Z,17.80
2017-12-22T09:25:59.256Z,16.97
2017-12-22T09:28:27.757Z,17.50
2017-12-22T09:30:55.943Z,16.40
2017-12-22T09:33:24.212Z,16.97
2017-12-22T09:35:51.734Z,15.70
2017-12-22T09:38:19.448Z,17.17
2017-12-22T09:40:46.861Z,16.13
2017-12-22T09:43:15.324Z,16.50
2017-12-22T09:45:49.163Z,15.37
2017-12-22T09:48:17.934Z,14.70
2017-12-22T09:50:46.732Z,14.33
2017-12-22T09:53:16.384Z,13.53
2017-12-22T09:55:49.499Z,13.97
2017-12-22T09:58:17.381Z,13.87
2017-12-22T10:00:55.561Z,13.63
2017-12-22T10:03:22.993Z,13.93
2017-12-22T10:05:50.439Z,13.57
2017-12-22T10:08:36.308Z,13.00
2017-12-22T10:11:05.558Z,13.47
2017-12-22T10:13:33.841Z,13.63
2017-12-22T10:16:02.121Z,12.73
2017-12-22T10:18:29.564Z,13.60
2017-12-22T10:20:57.033Z,12.53
2017-12-22T10:23:24.461Z,10.93
2017-12-22T10:25:51.902Z,12.83
2017-12-22T10:28:20.083Z,11.77
2017-12-22T10:30:47.522Z,12.40
2017-12-22T10:33:14.950Z,13.13
2017-12-22T10:35:42.380Z,12.47
2017-12-22T10:38:10.121Z,12.73
2017-12-22T10:40:37.778Z,12.70
2017-12-22T10:43:05.209Z,12.80
2017-12-22T10:45:33.408Z,12.67
2017-12-22T10:48:00.840Z,12.67
2017-12-22T10:50:28.269Z,13.40
2017-12-22T10:52:55.829Z,14.50
2017-12-22T10:55:23.248Z,13.60
2017-12-22T10:57:51.386Z,13.07
2017-12-22T11:00:19.583Z,11.80
2017-12-22T11:02:47.049Z,12.27
2017-12-22T11:05:14.881Z,12.73
2017-12-22T11:07:43.487Z,13.10
2017-12-22T11:10:10.928Z,13.77
2017-12-22T11:12:39.120Z,13.80
2017-12-22T11:15:06.681Z,14.10
2017-12-22T11:17:34.798Z,14.70
2017-12-22T11:20:02.252Z,14.30
2017-12-22T11:22:29.676Z,14.97
2017-12-22T11:24:57.382Z,16.37
2017-12-22T11:27:25.214Z,16.30
2017-12-22T11:29:54.615Z,15.20
2017-12-22T11:32:22.048Z,15.03
2017-12-22T11:34:49.633Z,16.00
2017-12-22T11:37:17.141Z,15.17
2017-12-22T11:39:44.576Z,14.40
2017-12-22T11:42:12.207Z,16.63
2017-12-22T11:44:39.626Z,15.37
2017-12-22T11:47:07.869Z,16.03
2017-12-22T11:49:35.320Z,16.57
2017-12-22T11:52:02.893Z,18.57
2017-12-22T11:54:30.933Z,17.80
2017-12-22T11:56:58.536Z,17.30
2017-12-22T11:59:25.948Z,17.53
2017-12-22T12:01:53.606Z,18.70
2017-12-22T12:04:21.909Z,17.67
2017-12-22T12:06:49.439Z,16.87
2017-12-22T12:09:16.885Z,17.23
2017-12-22T12:11:44.320Z,16.13
2017-12-22T12:14:12.529Z,16.93
2017-12-22T12:16:39.974Z,17.33
2017-12-22T12:19:07.618Z,19.07
2017-12-22T12:21:35.897Z,17.67
2017-12-22T12:24:03.462Z,19.20
2017-12-22T12:26:30.892Z,17.67
2017-12-22T12:28:58.751Z,19.13
2017-12-22T12:31:26.925Z,20.07
2017-12-22T12:33:54.515Z,18.73
2017-12-22T12:36:21.936Z,22.23
2017-12-22T12:38:49.393Z,17.60
2017-12-22T12:41:16.831Z,18.90
2017-12-22T12:43:44.274Z,24.77
2017-12-22T12:46:11.705Z,20.83
2017-12-22T12:48:39.577Z,20.97
2017-12-22T12:51:07.018Z,23.10
2017-12-22T12:53:35.232Z,24.73
2017-12-22T12:56:03.844Z,23.13
2017-12-22T12:58:31.598Z,18.37
2017-12-22T13:01:00.925Z,17.27
2017-12-22T13:03:28.365Z,20.47
2017-12-22T13:05:55.792Z,15.70
2017-12-22T13:08:24.017Z,19.07
2017-12-22T13:10:52.290Z,17.73
2017-12-22T13:13:19.720Z,19.63
2017-12-22T13:15:47.765Z,17.10
2017-12-22T13:18:15.213Z,18.97
2017-12-22T13:20:43.441Z,17.33
2017-12-22T13:23:10.874Z,17.77
2017-12-22T13:25:38.312Z,18.33
2017-12-22T13:28:06.513Z,18.20
2017-12-22T13:30:33.969Z,18.40
2017-12-22T13:33:01.414Z,16.77
2017-12-22T13:35:29.390Z,15.70
2017-12-22T13:37:57.257Z,18.87
2017-12-22T13:40:24.699Z,17.40
2017-12-22T13:42:52.116Z,17.60
2017-12-22T13:45:21.040Z,15.40
2017-12-22T13:47:48.468Z,17.63
2017-12-22T13:50:16.672Z,16.60
2017-12-22T13:52:44.132Z,17.33
2017-12-22T13:55:11.572Z,17.40
2017-12-22T13:57:39.401Z,18.57
2017-12-22T14:00:06.837Z,24.87
2017-12-22T14:02:34.786Z,20.73
2017-12-22T14:05:02.777Z,22.13
2017-12-22T14:07:30.205Z,19.87
2017-12-22T14:09:57.709Z,18.10
2017-12-22T14:12:25.711Z,18.53
2017-12-22T14:14:53.141Z,16.93
2017-12-22T14:17:20.587Z,18.57
2017-12-22T14:19:48.008Z,18.00
2017-12-22T14:22:15.460Z,18.63
2017-12-22T14:24:43.400Z,17.07
2017-12-22T14:27:10.833Z,18.50
2017-12-22T14:29:39.237Z,19.07
2017-12-22T14:32:07.418Z,20.53
2017-12-22T14:34:34.841Z,20.63
2017-12-22T14:37:02.742Z,19.97
2017-12-22T14:39:30.925Z,19.43
2017-12-22T14:41:59.139Z,20.57
2017-12-22T14:44:26.576Z,19.30
2017-12-22T14:46:54.004Z,19.87
2017-12-22T14:49:21.962Z,19.23
2017-12-22T14:51:50.523Z,18.63
2017-12-22T14:54:18.981Z,18.40
2017-12-22T14:56:46.920Z,18.07
2017-12-22T14:59:14.340Z,18.73
2017-12-22T15:01:42.826Z,17.10
2017-12-22T15:04:11.025Z,19.10
2017-12-22T15:06:38.452Z,20.40
2017-12-22T15:09:06.640Z,17.73
2017-12-22T15:11:34.843Z,14.80
2017-12-22T15:14:02.793Z,15.93
2017-12-22T15:16:30.761Z,15.23
2017-12-22T15:18:58.203Z,16.03
2017-12-22T15:21:26.402Z,16.23
2017-12-22T15:23:54.271Z,13.63
2017-12-22T15:26:21.695Z,13.30
2017-12-22T15:28:49.888Z,13.50
2017-12-22T15:31:17.344Z,13.57
2017-12-22T15:33:45.542Z,12.93
2017-12-22T15:36:12.966Z,13.07
2017-12-22T15:38:41.174Z,15.93
2017-12-22T15:41:08.634Z,16.00
2017-12-22T15:43:36.069Z,17.70
2017-12-22T15:46:03.505Z,15.33
2017-12-22T15:48:31.718Z,17.83
2017-12-22T15:50:59.148Z,17.33
2017-12-22T15:53:26.589Z,18.13
2017-12-22T15:55:54.807Z,13.43
2017-12-22T15:58:22.237Z,14.67
2017-12-22T16:00:52.008Z,17.27
2017-12-22T16:03:19.444Z,15.20
2017-12-22T16:05:46.868Z,13.03
2017-12-22T16:08:14.573Z,13.80
2017-12-22T16:10:42.111Z,14.87
2017-12-22T16:13:09.555Z,16.50
2017-12-22T16:15:36.988Z,16.93
2017-12-22T16:18:04.424Z,14.90
2017-12-22T16:20:32.767Z,14.53
2017-12-22T16:23:00.201Z,15.77
2017-12-22T16:25:27.644Z,16.60
2017-12-22T16:27:56.729Z,16.43
2017-12-22T16:30:24.928Z,15.10
2017-12-22T16:32:52.350Z,15.13
2017-12-22T16:35:19.793Z,15.80
2017-12-22T16:37:47.225Z,15.17
2017-12-22T16:40:14.675Z,16.37
2017-12-22T16:42:42.955Z,15.30
2017-12-22T16:48:04.280Z,15.80
2017-12-22T16:50:31.719Z,18.70
2017-12-22T16:52:59.409Z,15.40
2017-12-22T16:55:26.816Z,18.07
2017-12-22T16:57:55.453Z,17.03
2017-12-22T17:00:23.356Z,17.00
2017-12-22T17:02:50.792Z,20.00
2017-12-22T17:05:18.239Z,19.60
2017-12-22T17:07:46.205Z,16.87
2017-12-22T17:10:13.646Z,17.63
2017-12-22T17:12:41.110Z,17.73
2017-12-22T17:15:08.541Z,17.77
2017-12-22T17:17:35.966Z,19.97
2017-12-22T17:20:03.720Z,18.07
2017-12-22T17:22:31.156Z,17.20
2017-12-22T17:24:58.620Z,16.60
2017-12-22T17:27:26.053Z,16.60
2017-12-22T17:29:53.515Z,17.63
2017-12-22T17:32:21.388Z,18.57
2017-12-22T17:34:49.272Z,17.30
2017-12-22T17:37:16.705Z,17.43
2017-12-22T17:39:44.166Z,14.50
2017-12-22T17:42:12.162Z,16.83
2017-12-22T17:44:39.593Z,15.93
2017-12-22T17:47:07.798Z,14.77
2017-12-22T17:49:35.228Z,18.10
2017-12-22T17:52:02.674Z,15.60
2017-12-22T17:54:30.113Z,17.37
2017-12-22T17:56:57.581Z,17.47
2017-12-22T17:59:25.007Z,15.60
2017-12-22T18:01:52.440Z,15.40
2017-12-22T18:04:19.880Z,16.73
2017-12-22T18:06:47.365Z,17.80
2017-12-22T18:09:14.992Z,14.27
2017-12-22T18:11:42.977Z,19.30
2017-12-22T18:14:10.419Z,16.73
2017-12-22T18:16:37.858Z,17.00
2017-12-22T18:19:05.315Z,15.67
2017-12-22T18:21:32.755Z,16.80
2017-12-22T18:24:00.230Z,18.23
2017-12-22T18:26:34.217Z,16.77
2017-12-22T18:29:02.415Z,14.57
2017-12-22T18:31:30.624Z,17.53
2017-12-22T18:33:58.060Z,16.70
2017-12-22T18:36:25.502Z,16.87
2017-12-22T18:38:52.920Z,15.77
2017-12-22T18:41:21.135Z,17.07
2017-12-22T18:43:48.565Z,14.97
2017-12-22T18:46:17.297Z,14.77
2017-12-22T18:48:45.269Z,12.53
2017-12-22T18:51:13.221Z,15.97
2017-12-22T18:53:40.717Z,15.83
2017-12-22T18:56:08.401Z,18.03
2017-12-22T18:58:36.493Z,18.20
2017-12-22T19:01:04.668Z,16.70
2017-12-22T19:03:32.105Z,16.27
2017-12-22T19:05:59.529Z,17.33
2017-12-22T19:08:27.944Z,17.87
2017-12-22T19:10:56.141Z,17.63
2017-12-22T19:13:23.661Z,20.40
2017-12-22T19:15:51.094Z,19.13
2017-12-22T19:18:18.529Z,18.80
2017-12-22T19:20:47.332Z,18.57
2017-12-22T19:23:14.769Z,17.37
2017-12-22T19:25:42.196Z,34.23
2017-12-22T19:28:10.401Z,32.30
2017-12-22T19:30:37.839Z,30.13
2017-12-22T19:33:05.269Z,27.20
2017-12-22T19:35:33.467Z,23.70
2017-12-22T19:38:00.893Z,28.67
2017-12-22T19:40:28.326Z,23.20
2017-12-22T19:42:55.804Z,23.53
2017-12-22T19:45:23.232Z,16.30
2017-12-22T19:47:50.658Z,15.23
2017-12-22T19:50:18.125Z,18.50
2017-12-22T19:52:45.564Z,21.10
2017-12-22T19:55:14.583Z,24.23
2017-12-22T19:57:41.984Z,20.77
2017-12-22T20:00:09.812Z,19.37
2017-12-22T20:02:37.515Z,17.83
2017-12-22T20:05:06.624Z,20.97
2017-12-22T20:07:35.249Z,24.70
2017-12-22T20:10:02.676Z,29.77
2017-12-22T20:12:31.546Z,16.73
2017-12-22T20:14:58.967Z,25.50
2017-12-22T20:17:26.388Z,16.07
2017-12-22T20:19:54.749Z,16.87
2017-12-22T20:22:23.059Z,20.70
2017-12-22T20:24:50.930Z,23.00
2017-12-22T20:27:18.428Z,19.53
2017-12-22T20:29:45.891Z,19.83
2017-12-22T20:32:13.306Z,19.87
2017-12-22T20:34:40.757Z,18.33
2017-12-22T20:37:08.177Z,16.67
2017-12-22T20:39:36.388Z,26.70
2017-12-22T20:42:03.820Z,16.23
2017-12-22T20:44:31.696Z,16.93
2017-12-22T20:46:59.122Z,15.47
2017-12-22T20:49:26.964Z,21.90
2017-12-22T20:51:54.394Z,16.10
2017-12-22T20:54:22.684Z,22.20
2017-12-22T20:56:50.535Z,20.07
2017-12-22T20:59:30.381Z,16.60
2017-12-22T21:01:57.811Z,13.07
2017-12-22T21:04:26.008Z,13.03
2017-12-22T21:06:53.501Z,14.90
2017-12-22T21:09:22.564Z,17.67
2017-12-22T21:11:49.988Z,37.57
2017-12-22T21:14:18.185Z,122.03
2017-12-22T21:16:45.621Z,63.27
2017-12-22T21:19:13.813Z,35.73
2017-12-22T21:21:41.240Z,25.43
2017-12-22T21:24:08.668Z,32.77
2017-12-22T21:26:36.104Z,31.13
2017-12-22T21:29:03.549Z,40.70
2017-12-22T21:31:31.736Z,34.50
2017-12-22T21:33:59.869Z,27.80
2017-12-22T21:36:28.064Z,39.17
2017-12-22T21:38:56.173Z,31.33
2017-12-22T21:41:23.600Z,22.17
2017-12-22T21:43:51.027Z,22.70
2017-12-22T21:46:19.226Z,27.77
2017-12-22T21:48:46.660Z,28.67
2017-12-22T21:51:14.868Z,30.03
2017-12-22T21:53:42.293Z,27.53
2017-12-22T21:56:10.523Z,30.63
2017-12-22T21:58:37.942Z,22.77
2017-12-22T22:01:05.377Z,24.13
2017-12-22T22:03:34.012Z,28.67
2017-12-22T22:06:01.450Z,27.33
2017-12-22T22:08:28.878Z,30.70
2017-12-22T22:10:57.085Z,21.57
2017-12-22T22:13:24.509Z,22.33
2017-12-22T22:15:52.721Z,26.20
2017-12-22T22:18:20.153Z,27.77
2017-12-22T22:20:48.103Z,25.97
2017-12-22T22:23:17.549Z,27.80
2017-12-22T22:25:45.011Z,25.27
2017-12-22T22:28:13.172Z,19.83
2017-12-22T22:30:41.015Z,23.07
2017-12-22T22:33:08.452Z,29.43
2017-12-22T22:35:35.885Z,22.20
2017-12-22T22:38:03.325Z,26.87
2017-12-22T22:40:44.482Z,20.57
2017-12-22T22:43:12.446Z,25.27
2017-12-22T22:45:41.131Z,34.53
2017-12-22T22:48:08.556Z,28.37
2017-12-22T22:50:35.992Z,22.63
2017-12-22T22:53:03.860Z,21.80
2017-12-22T22:55:31.285Z,20.33
2017-12-22T22:57:58.721Z,22.70
2017-12-22T23:00:26.154Z,17.20
2017-12-22T23:02:54.017Z,22.17
2017-12-22T23:05:21.862Z,24.50
2017-12-22T23:07:49.293Z,19.50
2017-12-22T23:10:16.738Z,16.60
2017-12-22T23:12:44.165Z,14.57
2017-12-22T23:15:15.253Z,15.97
2017-12-22T23:17:43.457Z,13.93
2017-12-22T23:20:10.896Z,23.17
2017-12-22T23:22:39.043Z,13.77
2017-12-22T23:25:07.052Z,18.80
2017-12-22T23:27:34.495Z,12.30
2017-12-22T23:30:02.608Z,14.00
2017-12-22T23:32:30.805Z,18.63
2017-12-22T23:34:58.237Z,18.13
2017-12-22T23:37:25.665Z,13.87
2017-12-22T23:39:53.141Z,16.50
2017-12-22T23:42:20.574Z,15.47
2017-12-22T23:44:48.686Z,17.20
2017-12-22T23:47:16.092Z,17.67
2017-12-22T23:49:43.535Z,16.90
2017-12-22T23:52:10.965Z,16.57
2017-12-22T23:54:39.161Z,22.17
2017-12-22T23:57:07.271Z,16.10
2017-12-22T23:59:34.704Z,16.67
